createdAt,value
2022-11-09T00:02:41.555Z,22.67
2022-11-09T00:06:59.310Z,9.40
2022-11-09T00:11:21.816Z,10.17
2022-11-09T00:15:37.261Z,27.20
2022-11-09T00:20:46.945Z,15.53
2022-11-09T00:25:55.316Z,22.10
2022-11-09T00:30:02.305Z,19.43
2022-11-09T00:34:20.673Z,10.23
2022-11-09T00:38:27.272Z,12.93
2022-11-09T00:42:46.873Z,19.77
2022-11-09T00:47:44.004Z,9.33
2022-11-09T00:51:50.172Z,27.30
2022-11-09T00:56:12.835Z,13.60
2022-11-09T01:00:24.060Z,9.60
2022-11-09T01:05:31.140Z,12.20
2022-11-09T01:10:01.861Z,11.57
2022-11-09T01:19:35.224Z,15.63
2022-11-09T01:23:43.031Z,8.43
2022-11-09T01:27:45.229Z,13.80
2022-11-09T01:31:48.641Z,17.07
2022-11-09T01:36:01.684Z,11.53
2022-11-09T01:40:33.663Z,7.43
2022-11-09T01:45:12.994Z,7.60
2022-11-09T01:49:55.971Z,15.10
2022-11-09T01:54:18.332Z,11.57
2022-11-09T01:58:52.280Z,14.90
2022-11-09T02:03:18.382Z,8.03
2022-11-09T02:07:24.578Z,14.37
2022-11-09T02:11:29.427Z,19.57
2022-11-09T02:15:32.331Z,9.50
2022-11-09T02:19:34.432Z,13.03
2022-11-09T02:23:36.793Z,10.93
2022-11-09T02:27:43.357Z,11.23
2022-11-09T02:31:49.640Z,8.50
2022-11-09T02:35:52.030Z,7.80
2022-11-09T02:39:59.043Z,6.97
2022-11-09T02:44:02.184Z,9.07
2022-11-09T02:48:04.417Z,7.73
2022-11-09T02:52:20.400Z,13.83
2022-11-09T02:56:23.882Z,16.43
2022-11-09T03:00:29.142Z,8.30
2022-11-09T03:04:35.400Z,16.87
2022-11-09T03:09:12.064Z,15.63
2022-11-09T03:13:15.628Z,14.00
2022-11-09T03:17:18.621Z,10.17
2022-11-09T03:21:37.172Z,8.43
2022-11-09T03:25:39.111Z,8.93
2022-11-09T03:29:41.212Z,11.47
2022-11-09T03:33:43.140Z,8.67
2022-11-09T03:37:45.328Z,14.17
2022-11-09T03:41:48.048Z,12.23
2022-11-09T03:45:50.592Z,9.83
2022-11-09T03:49:52.567Z,11.47
2022-11-09T03:53:56.676Z,13.70
2022-11-09T03:57:58.533Z,13.27
2022-11-09T04:02:01.750Z,15.03
2022-11-09T04:06:04.084Z,6.93
2022-11-09T04:10:08.588Z,17.60
2022-11-09T04:14:38.852Z,25.53
2022-11-09T04:19:00.086Z,19.23
2022-11-09T04:23:04.107Z,8.17
2022-11-09T04:27:06.805Z,9.57
2022-11-09T04:31:08.728Z,35.70
2022-11-09T04:35:12.916Z,18.53
2022-11-09T04:39:18.114Z,26.90
2022-11-09T04:43:27.364Z,9.47
2022-11-09T04:48:39.059Z,16.03
2022-11-09T04:52:41.139Z,13.63
2022-11-09T04:57:12.068Z,10.27
2022-11-09T05:01:14.707Z,6.73
2022-11-09T05:05:16.708Z,25.07
2022-11-09T05:09:19.032Z,22.47
2022-11-09T05:13:21.599Z,19.90
2022-11-09T05:17:23.876Z,18.73
2022-11-09T05:21:25.756Z,16.53
2022-11-09T05:35:55.345Z,16.73
2022-11-09T05:39:58.458Z,16.20
2022-11-09T05:44:28.834Z,13.10
2022-11-09T05:48:31.285Z,9.73
2022-11-09T05:52:37.385Z,10.57
2022-11-09T05:56:39.340Z,16.97
2022-11-09T06:00:41.675Z,22.90
2022-11-09T06:04:58.303Z,13.30
2022-11-09T06:10:02.951Z,12.23
2022-11-09T06:14:30.954Z,10.33
2022-11-09T06:19:01.156Z,17.33
2022-11-09T06:23:09.529Z,11.37
2022-11-09T06:27:11.699Z,11.60
2022-11-09T06:31:16.629Z,14.23
2022-11-09T06:35:20.701Z,15.03
2022-11-09T06:39:23.809Z,23.87
2022-11-09T06:43:51.922Z,9.97
2022-11-09T06:48:04.631Z,11.97
2022-11-09T06:52:08.194Z,13.63
2022-11-09T06:56:10.762Z,10.17
2022-11-09T07:00:13.267Z,8.80
2022-11-09T07:04:20.574Z,9.30
2022-11-09T07:08:22.743Z,8.33
2022-11-09T07:12:52.629Z,9.63
2022-11-09T07:17:19.890Z,10.10
2022-11-09T07:21:21.901Z,8.97
2022-11-09T07:25:50.975Z,13.70
2022-11-09T07:30:15.201Z,14.70
2022-11-09T07:34:17.194Z,14.27
2022-11-09T07:38:19.978Z,13.40
2022-11-09T07:42:23.477Z,16.63
2022-11-09T07:46:25.579Z,14.93
2022-11-09T07:50:29.269Z,10.90
2022-11-09T07:54:33.450Z,17.53
2022-11-09T07:58:37.067Z,13.27
2022-11-09T08:03:49.624Z,15.20
2022-11-09T08:07:56.385Z,13.03
2022-11-09T08:12:00.610Z,15.97
2022-11-09T08:16:03.134Z,12.37
2022-11-09T08:20:05.469Z,15.90
2022-11-09T08:24:07.573Z,12.00
2022-11-09T08:28:19.230Z,14.33
2022-11-09T08:32:21.958Z,17.87
2022-11-09T08:36:26.129Z,25.27
2022-11-09T08:40:28.479Z,18.60
2022-11-09T08:44:38.628Z,22.50
2022-11-09T08:48:40.818Z,33.90
2022-11-09T08:52:45.090Z,16.17
2022-11-09T08:56:47.090Z,18.73
2022-11-09T09:00:49.228Z,14.93
2022-11-09T09:04:53.209Z,15.63
2022-11-09T09:08:55.282Z,42.30
2022-11-09T09:13:00.327Z,25.30
2022-11-09T09:17:02.818Z,30.73
2022-11-09T09:21:54.373Z,23.07
2022-11-09T09:26:00.178Z,29.10
2022-11-09T09:30:09.866Z,18.40
2022-11-09T09:34:14.631Z,30.67
2022-11-09T09:38:16.538Z,19.00
2022-11-09T09:42:22.918Z,18.10
2022-11-09T09:46:43.739Z,21.77
2022-11-09T09:50:54.233Z,50.03
2022-11-09T09:55:19.895Z,41.67
2022-11-09T09:59:50.959Z,17.47
2022-11-09T10:03:55.153Z,18.50
2022-11-09T10:08:43.175Z,15.53
2022-11-09T10:13:01.568Z,15.87
2022-11-09T10:18:22.525Z,21.17
2022-11-09T10:23:00.491Z,17.93
2022-11-09T10:27:34.249Z,23.77
2022-11-09T10:31:41.273Z,16.20
2022-11-09T10:36:08.483Z,17.63
2022-11-09T10:41:20.739Z,15.67
2022-11-09T10:46:08.462Z,14.17
2022-11-09T10:50:37.825Z,17.43
2022-11-09T10:56:07.322Z,16.60
2022-11-09T11:00:34.481Z,14.73
2022-11-09T11:05:07.474Z,19.00
2022-11-09T11:09:56.677Z,19.17
2022-11-09T11:14:25.782Z,17.67
2022-11-09T11:18:52.085Z,18.73
2022-11-09T11:24:05.415Z,19.63
2022-11-09T11:28:53.913Z,18.33
2022-11-09T11:34:32.377Z,15.80
2022-11-09T11:39:47.338Z,18.17
2022-11-09T11:44:52.685Z,16.00
2022-11-09T11:50:14.033Z,15.90
2022-11-09T11:55:19.326Z,15.00
2022-11-09T12:00:02.335Z,18.83
2022-11-09T12:04:38.305Z,17.43
2022-11-09T12:09:48.573Z,19.80
2022-11-09T12:14:40.709Z,19.63
2022-11-09T12:20:21.141Z,18.70
2022-11-09T12:25:19.357Z,20.53
2022-11-09T12:29:55.346Z,17.77
2022-11-09T12:34:35.770Z,17.40
2022-11-09T12:39:21.847Z,17.93
2022-11-09T12:43:48.247Z,18.23
2022-11-09T12:48:22.959Z,15.77
2022-11-09T12:53:03.210Z,16.30
2022-11-09T12:57:28.094Z,15.10
2022-11-09T13:01:59.489Z,20.87
2022-11-09T13:06:26.170Z,19.93
2022-11-09T13:10:46.588Z,17.20
2022-11-09T13:15:34.437Z,18.73
2022-11-09T13:19:56.714Z,19.00
2022-11-09T13:24:34.412Z,18.47
2022-11-09T13:29:08.792Z,15.93
2022-11-09T13:33:33.580Z,23.87
2022-11-09T13:37:56.774Z,17.37
2022-11-09T13:42:44.085Z,19.70
2022-11-09T13:47:05.284Z,20.77
2022-11-09T13:51:48.030Z,20.33
2022-11-09T14:02:39.326Z,18.63
2022-11-09T14:07:07.748Z,19.47
2022-11-09T14:12:09.659Z,19.47
2022-11-09T14:17:04.201Z,23.90
2022-11-09T14:27:11.423Z,24.70
2022-11-09T14:32:42.185Z,19.77
2022-11-09T14:37:06.707Z,19.67
2022-11-09T14:41:30.573Z,18.67
2022-11-09T14:46:22.568Z,18.17
2022-11-09T14:51:20.596Z,20.33
2022-11-09T14:55:42.277Z,22.27
2022-11-09T15:00:03.901Z,21.63
2022-11-09T15:09:48.362Z,21.17
2022-11-09T15:14:24.108Z,18.93
2022-11-09T15:18:47.560Z,20.30
2022-11-09T15:24:14.093Z,22.83
2022-11-09T15:29:25.574Z,16.97
2022-11-09T15:34:01.867Z,34.50
2022-11-09T15:38:43.883Z,19.17
2022-11-09T15:43:04.527Z,23.23
2022-11-09T15:47:50.670Z,26.17
2022-11-09T15:52:12.413Z,26.10
2022-11-09T15:56:48.451Z,24.57
2022-11-09T16:01:08.904Z,23.50
2022-11-09T16:05:29.479Z,31.67
2022-11-09T16:09:49.961Z,20.73
2022-11-09T16:14:17.868Z,18.83
2022-11-09T16:19:03.571Z,18.83
2022-11-09T16:23:25.127Z,27.70
2022-11-09T16:27:50.906Z,34.17
2022-11-09T16:32:12.328Z,20.50
2022-11-09T16:37:40.851Z,27.00
2022-11-09T16:42:06.190Z,19.87
2022-11-09T16:46:43.599Z,36.23
2022-11-09T16:51:04.622Z,20.27
2022-11-09T16:55:41.807Z,24.13
2022-11-09T17:00:07.238Z,27.93
2022-11-09T17:04:31.803Z,18.50
2022-11-09T17:08:57.121Z,24.77
2022-11-09T17:13:21.650Z,17.57
2022-11-09T17:17:42.160Z,15.87
2022-11-09T17:22:14.903Z,13.03
2022-11-09T17:26:37.193Z,28.33
2022-11-09T17:31:36.902Z,13.77
2022-11-09T17:36:00.107Z,16.60
2022-11-09T17:40:38.143Z,18.77
2022-11-09T17:44:58.668Z,20.40
2022-11-09T17:49:38.404Z,25.57
2022-11-09T17:54:24.828Z,24.87
2022-11-09T17:58:46.212Z,15.13
2022-11-09T18:04:08.835Z,14.97
2022-11-09T18:09:25.894Z,13.50
2022-11-09T18:13:46.635Z,18.00
2022-11-09T18:18:07.989Z,12.00
2022-11-09T18:22:31.630Z,15.30
2022-11-09T18:27:42.721Z,11.00
2022-11-09T18:32:28.752Z,16.10
2022-11-09T18:37:20.358Z,9.00
2022-11-09T18:41:42.978Z,11.73
2022-11-09T18:46:30.223Z,7.57
2022-11-09T18:50:55.662Z,8.50
2022-11-09T18:55:16.364Z,7.97
2022-11-09T19:12:29.650Z,7.20
2022-11-09T19:17:40.498Z,9.47
2022-11-09T19:22:01.175Z,9.40
2022-11-09T19:26:36.956Z,16.87
2022-11-09T19:31:00.987Z,10.30
2022-11-09T19:35:25.496Z,7.60
2022-11-09T19:39:49.211Z,7.20
2022-11-09T19:44:18.217Z,7.23
2022-11-09T19:49:49.082Z,7.80
2022-11-09T19:55:14.168Z,7.37
2022-11-09T20:05:35.165Z,6.33
2022-11-09T20:10:21.725Z,6.40
2022-11-09T20:14:46.147Z,5.07
2022-11-09T20:19:10.884Z,3.83
2022-11-09T20:23:32.573Z,4.17
2022-11-09T20:27:56.144Z,4.20
2022-11-09T20:33:14.624Z,3.27
2022-11-09T20:43:39.884Z,1.80
2022-11-09T20:48:54.667Z,1.63
2022-11-09T20:53:16.744Z,2.07
2022-11-09T20:57:48.528Z,2.23
2022-11-09T21:02:14.926Z,2.20
2022-11-09T21:06:41.505Z,2.67
2022-11-09T21:11:03.685Z,2.30
2022-11-09T21:15:30.228Z,3.47
2022-11-09T21:20:17.779Z,2.23
2022-11-09T21:25:02.111Z,2.60
2022-11-09T21:30:19.579Z,3.00
2022-11-09T21:34:40.164Z,2.50
2022-11-09T21:39:01.979Z,4.00
2022-11-09T21:43:22.782Z,3.03
2022-11-09T21:47:56.762Z,4.53
2022-11-09T21:52:42.655Z,3.80
2022-11-09T21:57:10.429Z,6.47
2022-11-09T22:01:31.409Z,5.60
2022-11-09T22:05:52.100Z,6.60
2022-11-09T22:10:12.364Z,3.07
2022-11-09T22:14:51.078Z,1.70
2022-11-09T22:24:15.757Z,2.07
2022-11-09T22:28:40.576Z,1.70
2022-11-09T22:33:01.187Z,1.53
2022-11-09T22:37:22.335Z,1.60
2022-11-09T22:42:07.512Z,1.73
2022-11-09T22:46:28.481Z,2.47
2022-11-09T22:51:15.858Z,1.27
2022-11-09T22:55:42.395Z,2.13
2022-11-09T23:00:53.583Z,1.83
2022-11-09T23:05:14.010Z,1.73
2022-11-09T23:09:51.604Z,1.70
2022-11-09T23:14:12.522Z,1.73
2022-11-09T23:23:43.750Z,2.50
2022-11-09T23:29:14.677Z,2.03
2022-11-09T23:33:37.680Z,1.90
2022-11-09T23:38:02.343Z,2.93
2022-11-09T23:42:24.775Z,2.73
2022-11-09T23:46:51.604Z,3.70
2022-11-09T23:51:13.040Z,2.77
2022-11-09T23:55:41.698Z,3.07
